Time;durP1;ratioP1;P1;durP2;ratioP2;P2;SDS_P1;SDS_P2;PMS_P1;PMS_P2;Temp;Humidity;BMP_temperature;BMP_pressure;BME280_temperature;BME280_humidity;BME280_pressure;Samples;Min_cycle;Max_cycle;Signal;HPM_P1;HPM_P2
2023/05/04 05:02:06;;;;;;;;;4.00;4.00;;;;;16.79;52.23;65289.97;5172559;23;45673;-85
2023/05/04 05:04:32;;;;;;;;;4.00;4.00;;;;;16.84;52.02;65298.28;4996613;28;45761;-85
2023/05/04 05:06:57;;;;;;;;;3.67;3.67;;;;;16.84;52.01;65176.09;4996644;28;45463;-85
2023/05/04 05:09:24;;;;;;;;;4.00;4.00;;;;;16.78;52.04;65166.63;4996669;28;45460;-85
2023/05/04 05:11:49;;;;;;;;;7.33;5.00;;;;;16.66;52.34;64985.03;4996386;28;46104;-85
2023/05/04 05:14:14;;;;;;;;;4.33;4.00;;;;;16.83;52.25;64963.59;4995781;28;45548;-86
2023/05/04 05:16:40;;;;;;;;;6.33;5.00;;;;;16.87;52.23;64794.69;4996463;28;45488;-85
2023/05/04 05:19:05;;;;;;;;;4.33;4.33;;;;;16.87;52.05;64832.59;4996804;28;45428;-85
2023/05/04 05:21:30;;;;;;;;;7.67;5.33;;;;;16.87;52.08;64784.00;4995271;28;66157;-85
2023/05/04 05:23:56;;;;;;;;;5.00;5.00;;;;;16.87;52.38;64778.66;4996135;28;50295;-85
2023/05/04 05:26:21;;;;;;;;;6.00;6.00;;;;;16.87;52.13;64749.31;4996290;28;45377;-85
2023/05/04 05:28:46;;;;;;;;;5.00;5.00;;;;;16.85;52.07;64592.88;4996295;28;45429;-85
2023/05/04 05:31:12;;;;;;;;;3.33;3.33;;;;;16.86;52.28;64545.44;4978165;28;58130;-86
2023/05/04 05:33:38;;;;;;;;;5.00;2.33;;;;;16.77;52.09;64557.25;4995985;28;45374;-85
2023/05/04 05:36:04;;;;;;;;;5.00;5.00;;;;;16.85;52.33;64562.97;4996282;28;45409;-85
2023/05/04 05:38:30;;;;;;;;;3.00;3.00;;;;;16.71;52.24;64457.16;4997944;28;45451;-85
2023/05/04 05:40:55;;;;;;;;;4.33;4.33;;;;;16.73;52.88;64298.81;4999446;28;46149;-85
2023/05/04 05:43:21;;;;;;;;;5.00;4.00;;;;;16.72;52.41;64218.25;4999162;28;45442;-85
2023/05/04 05:45:46;;;;;;;;;4.00;4.00;;;;;16.85;52.39;64205.50;4999248;28;47200;-85
2023/05/04 05:48:11;;;;;;;;;6.00;4.33;;;;;16.90;52.58;64106.47;4999688;28;45454;-85
2023/05/04 05:50:37;;;;;;;;;5.00;3.67;;;;;16.91;52.64;63964.06;4999201;28;45408;-85
2023/05/04 05:53:02;;;;;;;;;5.00;3.50;;;;;16.79;52.48;63849.97;4999403;28;45847;-85
2023/05/04 05:55:27;;;;;;;;;4.00;4.00;;;;;16.94;52.67;63726.75;4999154;28;45384;-86
2023/05/04 05:57:52;;;;;;;;;4.33;4.33;;;;;16.86;52.75;63582.97;4999523;28;45501;-85
2023/05/04 06:00:18;;;;;;;;;4.00;4.00;;;;;16.88;52.80;63411.81;4998724;28;51459;-85
2023/05/04 06:02:43;;;;;;;;;6.33;4.00;;;;;16.82;52.64;63354.53;4999186;28;45472;-85
2023/05/04 06:05:09;;;;;;;;;3.00;3.00;;;;;16.99;52.78;63263.28;4999398;28;45533;-86
2023/05/04 06:07:35;;;;;;;;;4.00;3.00;;;;;16.95;52.98;62928.16;4999280;28;45772;-85
2023/05/04 06:10:00;;;;;;;;;4.00;2.00;;;;;17.13;52.69;63061.97;4999146;28;45428;-85
2023/05/04 06:12:25;;;;;;;;;2.67;2.67;;;;;17.16;52.47;62976.63;4998677;28;45688;-85
2023/05/04 06:14:51;;;;;;;;;2.67;2.67;;;;;17.19;52.80;62572.25;4999097;28;45745;-86
2023/05/04 06:17:17;;;;;;;;;5.00;5.00;;;;;17.04;53.05;62417.81;4999275;28;45534;-85
2023/05/04 06:19:44;;;;;;;;;4.00;3.00;;;;;17.17;52.51;62575.41;4998884;28;47028;-85
2023/05/04 06:22:10;;;;;;;;;3.00;3.00;;;;;17.27;52.39;62620.41;4998707;28;45515;-85
2023/05/04 06:24:35;;;;;;;;;3.00;3.00;;;;;17.28;52.39;62573.47;4999131;28;45486;-85
2023/05/04 06:27:01;;;;;;;;;3.33;3.33;;;;;17.17;52.27;62428.66;4998688;28;45384;-85
2023/05/04 06:29:26;;;;;;;;;4.00;4.00;;;;;17.15;52.10;62389.16;4998656;28;47150;-86
2023/05/04 06:31:51;;;;;;;;;3.00;3.00;;;;;17.41;52.14;62261.97;4981100;28;45761;-85
2023/05/04 06:34:17;;;;;;;;;3.00;3.00;;;;;17.27;52.10;62100.63;4998736;28;45982;-85
2023/05/04 06:36:43;;;;;;;;;3.33;3.33;;;;;17.42;52.49;62233.69;4999058;28;45389;-85
2023/05/04 06:39:08;;;;;;;;;3.33;3.33;;;;;17.44;52.31;62182.47;4998509;28;46401;-85
2023/05/04 06:41:33;;;;;;;;;3.00;3.00;;;;;17.42;52.13;62156.31;4998065;28;45429;-85
2023/05/04 06:43:59;;;;;;;;;2.00;2.00;;;;;17.47;51.99;62164.34;4998733;28;45344;-85
2023/05/04 06:46:25;;;;;;;;;4.33;4.00;;;;;17.60;51.88;62073.19;4998914;28;45431;-85
2023/05/04 06:48:51;;;;;;;;;4.00;4.00;;;;;17.65;52.39;61929.06;4998295;28;47481;-85
2023/05/04 06:51:16;;;;;;;;;3.00;3.00;;;;;17.68;52.16;61798.81;4998275;28;45404;-85
2023/05/04 06:53:42;;;;;;;;;4.00;4.00;;;;;17.72;51.92;61765.72;4998006;28;45656;-85
2023/05/04 06:56:07;;;;;;;;;3.33;3.33;;;;;17.64;52.14;61645.03;4998519;28;45656;-85
2023/05/04 06:58:33;;;;;;;;;3.33;3.33;;;;;17.78;51.89;61739.56;4998384;28;46154;-85
2023/05/04 07:00:58;;;;;;;;;5.00;4.00;;;;;17.86;51.89;61710.78;4998303;28;45389;-85
2023/05/04 07:03:23;;;;;;;;;4.33;3.67;;;;;17.85;51.94;61616.78;4998332;28;45423;-85
2023/05/04 07:05:49;;;;;;;;;1.33;1.33;;;;;17.92;52.10;61711.88;4998621;28;45380;-85
2023/05/04 07:08:16;;;;;;;;;5.67;3.00;;;;;17.84;52.36;61575.66;4996987;28;47297;-85
2023/05/04 07:10:41;;;;;;;;;4.00;3.00;;;;;17.92;51.79;61618.91;4993076;28;45463;-86
2023/05/04 07:13:08;;;;;;;;;3.33;3.33;;;;;18.00;52.10;61524.91;4998388;28;45398;-85
2023/05/04 07:15:33;;;;;;;;;5.00;4.00;;;;;18.02;51.94;61476.84;4982348;28;45423;-85
2023/05/04 07:18:00;;;;;;;;;4.33;3.00;;;;;18.00;51.83;61351.31;4978487;28;46162;-85
2023/05/04 07:20:25;;;;;;;;;5.00;5.00;;;;;17.80;52.25;61368.47;4977429;28;45484;-82
2023/05/04 07:22:57;;;;;;;;;6.00;4.00;;;;;17.95;51.65;61338.00;4978824;28;45542;-80
2023/05/04 07:25:24;;;;;;;;;4.33;4.33;;;;;18.11;51.69;61258.84;4991159;28;45751;-81
2023/05/04 07:27:50;;;;;;;;;3.33;3.33;;;;;18.19;51.46;61237.97;4990568;28;46451;-81
2023/05/04 07:30:15;;;;;;;;;3.67;3.00;;;;;18.09;51.86;61214.53;4984395;28;45700;-81
2023/05/04 07:32:40;;;;;;;;;5.00;4.00;;;;;18.13;51.65;61023.25;4995450;28;45764;-82
2023/05/04 07:35:06;;;;;;;;;5.00;5.00;;;;;18.11;51.85;60743.38;4994749;28;45602;-80
2023/05/04 07:37:32;;;;;;;;;4.00;4.00;;;;;18.32;52.15;60706.22;4980639;28;46070;-81
2023/05/04 07:39:59;;;;;;;;;5.00;5.00;;;;;18.35;51.73;60720.06;4992514;28;45516;-81
2023/05/04 07:42:26;;;;;;;;;4.33;4.00;;;;;18.38;51.68;60667.13;4983302;28;45573;-80
2023/05/04 07:44:52;;;;;;;;;3.00;3.00;;;;;18.29;52.00;60647.47;4989623;28;45472;-80
2023/05/04 07:47:17;;;;;;;;;2.00;2.00;;;;;18.47;51.72;60599.09;4981679;28;46032;-80
2023/05/04 07:49:42;;;;;;;;;4.33;3.33;;;;;18.44;51.76;60467.16;4994586;28;45598;-81
2023/05/04 07:52:07;;;;;;;;;3.33;3.33;;;;;18.42;52.03;60400.94;4990891;28;46439;-81
2023/05/04 07:54:33;;;;;;;;;4.00;4.00;;;;;18.64;51.67;60287.19;4986974;28;45631;-82
2023/05/04 07:57:02;;;;;;;;;5.00;3.33;;;;;18.65;51.90;59986.72;4984085;28;46285;-81
2023/05/04 07:59:27;;;;;;;;;5.67;5.67;;;;;18.58;51.77;59930.81;4992826;28;45432;-81
2023/05/04 08:01:52;;;;;;;;;6.67;4.00;;;;;18.43;51.90;59856.97;4980293;28;45641;-80
2023/05/04 08:04:18;;;;;;;;;4.00;4.00;;;;;18.83;51.47;59836.56;4970862;28;45342;-81
2023/05/04 08:06:43;;;;;;;;;6.00;4.00;;;;;18.88;51.82;59795.78;4985881;28;47128;-81
2023/05/04 08:09:09;;;;;;;;;2.00;2.00;;;;;18.99;51.48;59678.88;4977274;28;45433;-81
2023/05/04 08:11:34;;;;;;;;;4.00;4.00;;;;;19.01;51.80;59418.38;4977428;28;45454;-81
2023/05/04 08:14:00;;;;;;;;;2.67;2.67;;;;;19.07;51.82;59424.59;4977844;28;45473;-81
2023/05/04 08:16:26;;;;;;;;;4.00;4.00;;;;;19.15;51.44;59318.38;4973359;28;46075;-81
2023/05/04 08:18:52;;;;;;;;;3.00;3.00;;;;;19.21;51.68;59144.84;4997165;28;45460;-81
2023/05/04 08:21:17;;;;;;;;;5.33;5.33;;;;;19.25;51.87;59020.56;4997125;28;45466;-81
2023/05/04 08:23:42;;;;;;;;;6.00;4.00;;;;;19.22;51.69;58934.06;4996828;28;45379;-81
2023/05/04 08:26:08;;;;;;;;;4.00;4.00;;;;;19.34;51.47;59008.41;4996863;28;45850;-80
2023/05/04 08:28:36;;;;;;;;;3.00;3.00;;;;;19.22;51.46;58800.88;4996922;28;45671;-80
2023/05/04 08:31:02;;;;;;;;;5.00;5.00;;;;;19.44;51.59;58707.31;4996864;28;45635;-81
2023/05/04 08:33:29;;;;;;;;;3.00;3.00;;;;;19.47;51.76;58563.75;4994853;28;45598;-81
2023/05/04 08:35:54;;;;;;;;;3.00;3.00;;;;;19.50;51.38;58534.69;4996563;28;46206;-80
2023/05/04 08:38:19;;;;;;;;;4.67;4.00;;;;;19.42;51.70;58528.72;4995857;28;45479;-80
2023/05/04 08:40:45;;;;;;;;;3.67;3.00;;;;;19.53;51.55;58523.88;4996304;28;47063;-81
2023/05/04 08:43:10;;;;;;;;;4.00;4.00;;;;;19.53;51.63;58294.28;4996726;28;45480;-81
2023/05/04 08:45:39;;;;;;;;;2.33;2.33;;;;;19.76;51.59;58210.06;4976832;28;45687;-81
2023/05/04 08:48:08;;;;;;;;;4.00;4.00;;;;;19.75;51.55;58061.38;4959288;28;45485;-80
2023/05/04 08:50:36;;;;;;;;;3.33;3.33;;;;;19.97;51.53;57785.91;4995701;28;45494;-81
2023/05/04 08:53:05;;;;;;;;;5.00;4.00;;;;;20.08;51.47;57435.06;4996397;28;45372;-81
2023/05/04 08:55:32;;;;;;;;;9.67;9.67;;;;;20.25;50.80;57422.59;4996098;28;46611;-81
2023/05/04 08:58:00;;;;;;;;;3.00;3.00;;;;;20.36;51.25;57165.28;4983567;28;45415;-81
2023/05/04 09:00:27;;;;;;;;;5.33;3.33;;;;;20.58;51.15;56460.75;4975276;28;45773;-83
2023/05/04 09:02:54;;;;;;;;;2.33;2.00;;;;;20.92;50.87;56187.66;4985238;28;45526;-83
2023/05/04 09:05:20;;;;;;;;;3.33;3.33;;;;;20.97;50.69;56158.19;4991983;28;45781;-83
2023/05/04 09:07:47;;;;;;;;;5.00;5.00;;;;;21.08;50.17;56873.41;4991717;28;45368;-81
2023/05/04 09:10:13;;;;;;;;;6.33;4.33;;;;;21.39;50.42;56090.97;4983567;28;45455;-82
2023/05/04 09:12:38;;;;;;;;;2.33;2.33;;;;;21.51;49.82;55646.25;4983852;28;45675;-82
2023/05/04 09:15:17;;;;;;;;;3.00;3.00;;;;;21.84;50.21;55577.94;4990156;28;45341;-81
2023/05/04 09:17:53;;;;;;;;;3.33;3.33;;;;;21.79;49.14;55965.31;4979273;28;45417;-82
2023/05/04 09:20:18;;;;;;;;;4.00;4.00;;;;;22.31;48.99;55445.19;4987280;28;45507;-82
2023/05/04 09:22:44;;;;;;;;;4.00;4.00;;;;;22.62;48.80;55321.47;4987642;28;45443;-82
2023/05/04 09:25:11;;;;;;;;;2.00;2.00;;;;;22.91;48.48;55515.50;4980351;28;45502;-82
2023/05/04 09:27:40;;;;;;;;;4.00;4.00;;;;;23.28;48.69;54804.94;4994039;28;45353;-83
2023/05/04 09:30:06;;;;;;;;;3.00;3.00;;;;;23.85;48.10;54260.88;4977987;28;45829;-81
2023/05/04 09:32:36;;;;;;;;;3.00;3.00;;;;;24.30;47.09;55867.19;4989350;28;45535;-82
2023/05/04 09:35:01;;;;;;;;;4.33;4.33;;;;;24.69;47.06;57154.47;4980751;28;46403;-82
2023/05/04 09:37:27;;;;;;;;;3.00;3.00;;;;;24.64;46.57;58337.00;4991532;28;45333;-82
2023/05/04 09:39:57;;;;;;;;;3.25;3.25;;;;;24.62;45.99;59314.06;4980017;28;45427;-81
2023/05/04 09:42:23;;;;;;;;;2.00;2.00;;;;;24.50;46.04;59978.25;4986724;28;45846;-81
2023/05/04 09:44:59;;;;;;;;;3.00;3.00;;;;;24.35;46.50;61015.59;4987649;28;47111;-81
2023/05/04 09:47:35;;;;;;;;;3.00;3.00;;;;;24.19;46.30;61603.41;4978861;28;45713;-81
2023/05/04 09:50:14;;;;;;;;;4.00;2.00;;;;;24.07;46.53;61401.88;4994899;28;45491;-81
2023/05/04 09:52:41;;;;;;;;;3.67;2.00;;;;;24.21;46.89;61281.88;4984277;28;45915;-81
2023/05/04 09:55:08;;;;;;;;;1.00;1.00;;;;;24.32;46.15;61778.56;4975626;28;45448;-80
2023/05/04 09:57:35;;;;;;;;;3.50;3.50;;;;;24.39;45.66;62605.84;4982340;28;45551;-81
2023/05/04 10:00:03;;;;;;;;;2.25;2.25;;;;;24.28;45.53;62923.16;4995623;28;45468;-81
2023/05/04 10:02:31;;;;;;;;;2.00;2.00;;;;;24.40;45.72;62744.56;4994049;28;45456;-81
2023/05/04 10:04:57;;;;;;;;;3.00;3.00;;;;;24.39;45.82;62980.97;4975162;28;47096;-81
2023/05/04 10:07:23;;;;;;;;;3.00;3.00;;;;;24.63;46.04;62842.38;4975493;28;45681;-80
2023/05/04 10:09:50;;;;;;;;;3.33;2.33;;;;;24.91;45.30;62817.63;4975789;28;45475;-81
2023/05/04 10:12:15;;;;;;;;;5.00;3.67;;;;;25.14;44.94;62971.69;4975888;28;45625;-81
2023/05/04 10:14:45;;;;;;;;;3.00;3.00;;;;;25.54;44.68;63559.75;4983293;28;46813;-81
2023/05/04 10:17:24;;;;;;;;;3.75;3.75;;;;;25.94;44.12;64802.00;4995271;28;45908;-81
2023/05/04 10:20:08;;;;;;;;;4.00;2.67;;;;;26.39;43.66;65625.34;4994986;28;45389;-81
2023/05/04 10:23:00;;;;;;;;;4.00;2.00;;;;;26.60;43.94;65041.41;4995221;28;45734;-80
2023/05/04 10:25:45;;;;;;;;;2.50;2.50;;;;;26.98;41.35;66805.00;4998307;28;47246;-82
2023/05/04 10:28:42;;;;;;;;;7.33;6.33;;;;;27.08;39.37;70575.91;5003603;28;45423;-83
2023/05/04 10:31:08;;;;;;;;;6.00;6.00;;;;;26.64;40.22;71196.97;4970734;28;45526;-85
2023/05/04 10:33:52;;;;;;;;;4.00;4.00;;;;;26.79;38.41;71931.47;5003314;28;45361;-88
2023/05/04 10:36:18;;;;;;;;;4.00;4.00;;;;;27.27;38.87;73028.22;5002962;28;46158;-88
2023/05/04 10:39:18;;;;;;;;;5.00;4.00;;;;;27.08;40.34;72698.03;5002786;28;45447;-87
2023/05/04 10:42:07;;;;;;;;;3.50;3.50;;;;;27.32;40.85;72702.84;4985350;28;45458;-84
2023/05/04 10:44:54;;;;;;;;;3.00;3.00;;;;;26.98;40.72;73052.38;4979942;28;45555;-87
2023/05/04 10:47:34;;;;;;;;;4.00;4.00;;;;;28.15;39.82;73096.97;4966958;28;48109;-87
2023/05/04 10:50:13;;;;;;;;;4.25;2.25;;;;;27.78;39.21;73971.56;4997375;28;45859;-87
2023/05/04 10:52:52;;;;;;;;;4.25;3.25;;;;;28.21;39.24;74267.03;4982168;28;45451;-85
2023/05/04 10:58:40;;;;;;;;;89.33;55.00;;;;;28.11;38.39;74165.13;4986103;28;45879;-87
2023/05/04 11:01:13;;;;;;;;;6.00;6.00;;;;;27.96;37.94;74042.72;4997889;28;45444;-91
2023/05/04 11:03:42;;;;;;;;;6.25;4.50;;;;;28.09;37.54;73995.91;4985370;28;45466;-95
2023/05/04 11:06:25;;;;;;;;;4.00;4.00;;;;;27.54;38.57;74029.53;4988377;28;45568;-96
2023/05/04 11:09:12;;;;;;;;;;;;;;;;;;;;;
2023/05/04 11:17:18;;;;;;;;;4.25;4.25;;;;;26.12;38.03;73137.31;5018673;22;45378;-95
2023/05/04 11:19:53;;;;;;;;;5.25;4.25;;;;;25.60;37.83;73035.47;5032055;23;47181;-96
2023/05/04 11:22:20;;;;;;;;;4.67;4.00;;;;;25.75;38.04;72915.31;5013138;28;45403;-96
2023/05/04 11:24:49;;;;;;;;;5.00;5.00;;;;;26.13;38.28;72945.94;5102414;22;45850;-89
2023/05/04 11:30:06;;;;;;;;;5.00;5.00;;;;;24.77;39.02;72631.56;5082082;22;45442;-95
2023/05/04 11:32:41;;;;;;;;;5.00;5.00;;;;;25.57;39.97;72695.59;5002927;28;45501;-94
2023/05/04 11:35:21;;;;;;;;;3.33;3.33;;;;;25.44;40.36;72537.00;5000991;28;45404;-93
2023/05/04 11:37:49;;;;;;;;;3.67;3.67;;;;;24.43;40.27;72409.16;5002610;28;45711;-96
2023/05/04 11:40:21;;;;;;;;;5.67;4.00;;;;;25.07;40.53;72437.44;4998679;28;46769;-91
2023/05/04 11:42:48;;;;;;;;;7.00;6.00;;;;;24.78;40.68;72383.13;4999426;28;45403;-93
2023/05/04 11:45:22;;;;;;;;;3.33;3.33;;;;;25.45;40.56;72492.19;4998249;28;45683;-93
2023/05/04 11:47:50;;;;;;;;;3.33;3.33;;;;;25.53;40.85;72528.00;4999080;28;45871;-86
2023/05/04 11:50:18;;;;;;;;;4.33;4.00;;;;;25.74;40.21;72564.94;4997351;28;46754;-90
2023/05/04 11:52:49;;;;;;;;;5.00;5.00;;;;;25.63;40.46;72608.81;4997644;28;45351;-90
2023/05/04 11:55:29;;;;;;;;;4.00;4.00;;;;;25.42;40.57;72477.00;4997365;28;45297;-90
2023/05/04 11:58:03;;;;;;;;;5.00;5.00;;;;;25.35;40.82;72457.47;4997706;28;45530;-87
2023/05/04 12:00:38;;;;;;;;;6.33;5.00;;;;;25.20;41.23;72333.81;4995180;28;46984;-89
2023/05/04 12:03:05;;;;;;;;;5.00;5.00;;;;;25.10;41.95;72232.66;5004765;28;45332;-90
2023/05/04 12:05:32;;;;;;;;;6.00;6.00;;;;;24.87;42.25;72030.91;5002113;28;45481;-93
2023/05/04 12:07:57;;;;;;;;;4.67;4.67;;;;;24.68;42.11;71918.72;5001920;28;45422;-92
2023/05/04 12:10:27;;;;;;;;;4.00;4.00;;;;;24.01;42.32;71752.03;4999817;28;46206;-91
2023/05/04 12:12:52;;;;;;;;;3.00;3.00;;;;;24.27;42.32;71809.88;4999330;28;45344;-90
2023/05/04 12:15:35;;;;;;;;;4.67;4.67;;;;;24.35;42.55;71689.91;5002415;28;45599;-95
2023/05/04 12:18:02;;;;;;;;;4.67;4.67;;;;;24.74;43.00;71675.03;5002588;28;45750;-94
2023/05/04 12:20:29;;;;;;;;;4.00;4.00;;;;;24.57;42.65;71660.19;4983793;28;48172;-90
2023/05/04 12:22:56;;;;;;;;;4.00;4.00;;;;;24.46;42.71;71567.56;4996790;28;45826;-85
2023/05/04 12:25:24;;;;;;;;;5.00;5.00;;;;;24.85;42.88;71541.78;4996651;28;45419;-86
2023/05/04 12:27:50;;;;;;;;;4.67;4.67;;;;;24.69;42.72;71508.63;4997116;28;45721;-86
2023/05/04 12:30:16;;;;;;;;;5.00;5.00;;;;;24.62;42.84;71487.72;4995584;28;46611;-86
2023/05/04 12:32:42;;;;;;;;;6.00;4.33;;;;;25.23;42.94;71698.88;4996220;28;45403;-86
2023/05/04 12:35:08;;;;;;;;;4.00;4.00;;;;;25.31;42.11;71672.91;4996380;28;45423;-86
2023/05/04 12:37:43;;;;;;;;;4.00;4.00;;;;;24.91;41.93;71740.75;4996936;28;45477;-89
2023/05/04 12:52:26;;;;;;;;;5.00;3.33;;;;;25.25;41.59;71909.31;5465649;22;46727;-89
2023/05/04 12:54:52;;;;;;;;;5.33;4.00;;;;;24.49;41.81;71731.50;5030470;28;45455;-88
2023/05/04 12:57:17;;;;;;;;;5.00;5.00;;;;;25.40;41.28;71919.03;5001434;28;45461;-86
2023/05/04 12:59:42;;;;;;;;;4.00;4.00;;;;;24.96;41.50;71983.06;5032524;28;45471;-87
2023/05/04 13:02:08;;;;;;;;;5.00;4.00;;;;;25.33;41.29;71932.69;5022553;28;45913;-86
2023/05/04 13:04:36;;;;;;;;;4.00;4.00;;;;;24.76;41.04;71860.94;5019207;28;45340;-85
2023/05/04 13:07:01;;;;;;;;;4.67;4.67;;;;;25.42;41.34;71975.72;5015952;28;45661;-85
2023/05/04 13:09:26;;;;;;;;;5.67;4.33;;;;;25.47;40.72;71971.66;5032524;28;45780;-85
2023/05/04 13:11:52;;;;;;;;;4.67;4.67;;;;;25.46;41.05;72002.31;5020127;28;45442;-86
2023/05/04 13:14:17;;;;;;;;;4.00;3.00;;;;;25.38;41.54;72014.13;5027070;28;45746;-85
2023/05/04 13:16:43;;;;;;;;;4.00;3.33;;;;;25.04;41.41;72020.00;5021514;28;45494;-86
2023/05/04 13:19:08;;;;;;;;;4.33;4.33;;;;;24.90;41.10;72070.41;5030962;28;45475;-85
2023/05/04 13:21:36;;;;;;;;;5.00;4.00;;;;;25.45;41.52;72055.91;5026368;28;45442;-85
2023/05/04 13:24:02;;;;;;;;;5.67;5.00;;;;;24.69;41.71;72020.72;5001473;28;45380;-86
2023/05/04 13:26:27;;;;;;;;;5.33;5.33;;;;;25.33;41.73;72030.22;5024774;28;45685;-87
2023/05/04 13:28:53;;;;;;;;;5.00;5.00;;;;;25.25;42.45;72039.94;5023053;28;45668;-87
2023/05/04 13:31:18;;;;;;;;;4.33;4.33;;;;;24.83;42.71;71853.31;5033620;28;47274;-87
2023/05/04 13:33:45;;;;;;;;;4.33;4.33;;;;;25.25;43.24;71809.69;5021882;28;45461;-90
2023/05/04 13:36:11;;;;;;;;;6.33;5.33;;;;;24.85;43.42;71677.75;5029091;28;45400;-87
2023/05/04 13:38:39;;;;;;;;;5.00;5.00;;;;;24.36;43.25;71561.91;5027959;28;45392;-87
2023/05/04 13:41:07;;;;;;;;;5.00;5.00;;;;;25.26;43.62;71480.47;5020424;28;47208;-87
2023/05/04 13:43:33;;;;;;;;;7.33;7.00;;;;;24.91;43.61;71483.56;5031820;28;45527;-91
2023/05/04 13:46:02;;;;;;;;;4.00;4.00;;;;;25.12;44.16;71295.41;5027058;28;45898;-88
2023/05/04 13:48:27;;;;;;;;;7.00;7.00;;;;;25.13;44.40;71201.25;5021376;28;45790;-83
2023/05/04 13:50:53;;;;;;;;;5.33;5.33;;;;;24.88;44.60;71106.97;5014572;28;50509;-87
2023/05/04 13:53:18;;;;;;;;;7.33;7.33;;;;;24.82;44.54;71056.97;5018579;28;45390;-85
2023/05/04 13:55:43;;;;;;;;;7.33;6.00;;;;;24.87;45.02;70961.72;5023893;28;45467;-85
2023/05/04 13:58:09;;;;;;;;;8.00;8.00;;;;;24.74;44.82;70787.44;5022572;28;45361;-83
2023/05/04 14:00:34;;;;;;;;;6.00;4.67;;;;;24.50;45.11;70587.91;5027104;28;45939;-86
2023/05/04 14:03:00;;;;;;;;;5.67;5.67;;;;;24.59;45.96;69393.13;5026673;28;45704;-84
2023/05/04 14:05:25;;;;;;;;;5.67;5.67;;;;;24.36;46.36;69323.03;5034891;28;45955;-84
2023/05/04 14:07:51;;;;;;;;;8.00;8.00;;;;;24.41;46.89;69269.53;5022087;28;45683;-85
2023/05/04 14:10:19;;;;;;;;;5.67;5.00;;;;;24.15;47.49;68103.81;5029684;28;45538;-83
2023/05/04 14:12:44;;;;;;;;;4.00;4.00;;;;;24.27;47.36;67388.38;5021579;28;45450;-86
2023/05/04 14:15:10;;;;;;;;;6.00;6.00;;;;;24.08;47.96;67094.19;5033730;28;45387;-85
2023/05/04 14:17:35;;;;;;;;;6.00;6.00;;;;;24.20;47.77;67216.09;5022140;28;46022;-85
2023/05/04 14:20:01;;;;;;;;;4.33;4.00;;;;;23.97;47.08;67208.97;5030248;28;45707;-85
2023/05/04 14:22:26;;;;;;;;;5.00;5.00;;;;;24.02;47.54;67278.97;5027651;28;45355;-85
2023/05/04 14:24:52;;;;;;;;;6.33;5.33;;;;;24.15;47.51;67175.19;5025215;28;45511;-84
2023/05/04 14:27:19;;;;;;;;;4.00;4.00;;;;;24.11;47.83;66951.25;5034745;28;45406;-84
2023/05/04 14:29:45;;;;;;;;;2.00;2.00;;;;;24.13;47.93;66726.72;5003950;28;48169;-86
2023/05/04 14:32:10;;;;;;;;;7.67;6.00;;;;;23.94;48.27;66333.50;5030901;28;45423;-83
2023/05/04 14:34:35;;;;;;;;;5.67;5.67;;;;;24.17;48.04;66191.78;5028772;28;45508;-85
2023/05/04 14:37:04;;;;;;;;;4.33;4.33;;;;;24.14;47.99;65867.06;5024437;28;45942;-86
2023/05/04 14:39:29;;;;;;;;;3.00;3.00;;;;;24.21;48.60;65645.50;5034310;28;45557;-86
2023/05/04 14:41:56;;;;;;;;;6.67;6.33;;;;;24.04;48.65;65299.09;5017969;28;55403;-85
2023/05/04 14:44:21;;;;;;;;;5.00;5.00;;;;;24.16;48.35;65088.53;5018515;28;45628;-85
2023/05/04 14:46:47;;;;;;;;;6.67;5.00;;;;;24.03;48.64;65098.81;5018944;28;45467;-85
2023/05/04 14:49:12;;;;;;;;;6.00;6.00;;;;;23.99;48.61;64868.19;5018325;28;45871;-85
2023/05/04 14:51:38;;;;;;;;;6.33;5.33;;;;;24.04;48.41;64597.97;5018127;28;45902;-86
2023/05/04 14:54:03;;;;;;;;;4.00;4.00;;;;;23.94;49.41;63904.25;5018273;28;45544;-86
2023/05/04 14:56:29;;;;;;;;;5.67;5.33;;;;;24.12;49.37;63901.97;5018712;28;45498;-86
2023/05/04 14:58:56;;;;;;;;;6.00;6.00;;;;;24.10;48.96;63832.28;5018212;28;47513;-86
2023/05/04 15:01:28;;;;;;;;;5.00;4.33;;;;;23.86;49.41;63105.75;5018206;28;45468;-89
2023/05/04 15:03:55;;;;;;;;;6.00;5.00;;;;;23.76;49.70;62439.66;5027261;28;45396;-85
2023/05/04 15:06:20;;;;;;;;;6.00;4.00;;;;;24.13;50.17;61214.06;5038485;28;45519;-87
2023/05/04 15:08:45;;;;;;;;;4.67;4.33;;;;;23.53;49.62;61092.94;5037834;28;46348;-91
2023/05/04 15:11:11;;;;;;;;;3.67;3.67;;;;;24.10;49.61;61391.03;5036231;28;45390;-87
2023/05/04 15:13:36;;;;;;;;;2.33;2.33;;;;;24.29;49.12;61599.50;5031631;28;45499;-92
2023/05/04 15:16:03;;;;;;;;;3.00;3.00;;;;;24.26;48.96;61925.41;5020148;28;45392;-89
2023/05/04 15:18:28;;;;;;;;;2.00;2.00;;;;;24.34;48.42;62557.25;5018189;28;46886;-93
2023/05/04 15:20:53;;;;;;;;;3.00;3.00;;;;;24.06;47.75;63385.41;5027022;28;45415;-89
2023/05/04 15:23:21;;;;;;;;;3.00;3.00;;;;;24.35;47.83;63962.41;5037937;28;45912;-87
2023/05/04 15:25:49;;;;;;;;;4.00;3.00;;;;;24.28;47.26;64653.25;5031377;28;46077;-89
2023/05/04 15:28:15;;;;;;;;;2.33;2.33;;;;;24.18;46.87;65050.28;5025546;28;45542;-84
2023/05/04 15:30:41;;;;;;;;;3.00;3.00;;;;;24.12;47.39;64968.56;5017950;28;45513;-85
2023/05/04 15:33:10;;;;;;;;;2.00;2.00;;;;;24.27;47.36;65043.63;5022932;28;45534;-86
2023/05/04 15:35:36;;;;;;;;;5.67;4.33;;;;;24.25;47.58;64836.75;5018009;28;45715;-90
2023/05/04 15:38:10;;;;;;;;;2.00;2.00;;;;;23.60;48.02;64529.06;5035048;28;46648;-91
2023/05/04 15:40:36;;;;;;;;;3.00;3.00;;;;;23.47;48.29;64045.50;5012043;28;45470;-94
2023/05/04 15:43:02;;;;;;;;;4.67;3.00;;;;;23.97;48.29;64147.66;5026529;28;45604;-92
2023/05/04 15:45:30;;;;;;;;;2.00;2.00;;;;;23.95;47.95;63943.69;5026378;28;45442;-93
2023/05/04 15:47:58;;;;;;;;;1.00;1.00;;;;;23.87;48.49;63414.28;5023713;28;45453;-92
2023/05/04 15:50:24;;;;;;;;;2.67;2.33;;;;;23.55;48.98;63283.31;5026570;28;45772;-96
2023/05/04 15:52:54;;;;;;;;;3.00;2.00;;;;;24.26;48.54;63247.53;5029377;28;45407;-96
2023/05/04 15:55:22;;;;;;;;;6.00;4.00;;;;;23.87;48.96;62731.97;5043601;28;45400;-96
2023/05/04 15:57:51;;;;;;;;;3.00;3.00;;;;;23.32;48.99;62684.28;5038307;28;46591;-94
2023/05/04 16:00:16;;;;;;;;;3.67;3.67;;;;;24.00;48.87;62805.41;5026671;28;45720;-93
2023/05/04 16:02:57;;;;;;;;;4.33;4.33;;;;;23.38;49.40;62491.91;5039766;28;45291;-96
2023/05/04 16:05:23;;;;;;;;;3.00;3.00;;;;;23.85;49.30;62395.44;5007371;28;45524;-93
2023/05/04 16:07:50;;;;;;;;;3.67;3.00;;;;;23.16;48.73;62236.56;5027104;28;47251;-94
2023/05/04 16:10:15;;;;;;;;;2.67;2.67;;;;;23.73;49.23;62250.94;5038008;28;45849;-94
2023/05/04 16:12:43;;;;;;;;;3.33;3.33;;;;;23.43;49.64;62073.75;5035809;28;45805;-92
2023/05/04 16:15:09;;;;;;;;;1.00;1.00;;;;;23.74;49.70;61763.59;5032444;28;45424;-89
2023/05/04 16:17:34;;;;;;;;;2.00;2.00;;;;;23.64;49.39;61888.19;5033306;28;46717;-92
2023/05/04 16:20:04;;;;;;;;;4.00;4.00;;;;;23.60;49.50;61596.13;5004865;28;45483;-85
2023/05/04 16:25:36;;;;;;;;;3.00;3.00;;;;;23.52;49.78;61110.72;5008113;22;45587;-93
2023/05/04 16:28:11;;;;;;;;;1.00;1.00;;;;;23.58;49.78;61195.22;5005421;28;45588;-88
2023/05/04 16:30:36;;;;;;;;;3.00;3.00;;;;;22.75;49.43;61335.06;5000838;28;45453;-95
2023/05/04 16:33:02;;;;;;;;;2.00;2.00;;;;;23.68;49.48;61410.06;4980917;28;45803;-93
2023/05/04 16:35:30;;;;;;;;;2.00;2.00;;;;;22.91;49.60;61249.22;5019653;22;46063;-94
2023/05/04 16:37:56;;;;;;;;;2.25;2.25;;;;;22.91;49.48;61052.75;4974719;28;45614;-95
2023/05/04 16:42:59;;;;;;;;;2.00;2.00;;;;;23.48;50.12;60869.44;5086610;22;67983;-89
2023/05/04 16:45:29;;;;;;;;;3.00;2.00;;;;;23.16;50.39;60392.09;4995207;28;45678;-90
2023/05/04 16:47:55;;;;;;;;;2.67;2.67;;;;;23.18;50.27;60346.25;4996848;28;45441;-89
2023/05/04 16:50:24;;;;;;;;;4.00;2.00;;;;;23.04;50.02;60530.81;4979601;28;45415;-87
2023/05/04 16:52:49;;;;;;;;;3.00;3.00;;;;;23.35;50.07;60374.25;4995969;28;45549;-92
2023/05/04 16:55:15;;;;;;;;;2.67;2.67;;;;;23.40;49.95;60010.03;4978888;28;45469;-92
2023/05/04 16:57:59;;;;;;;;;2.75;2.00;;;;;23.67;50.15;60239.06;4990111;28;48211;-91
2023/05/04 17:00:24;;;;;;;;;3.00;3.00;;;;;23.29;50.20;60096.03;4994947;28;45859;-91
2023/05/04 17:06:13;;;;;;;;;3.33;2.33;;;;;23.17;50.25;60132.53;4919671;28;45485;-88
2023/05/04 17:08:42;;;;;;;;;3.00;3.00;;;;;23.22;49.99;60166.31;4979834;28;47369;-89
2023/05/04 17:11:10;;;;;;;;;3.67;2.00;;;;;23.04;50.01;60067.91;4995630;28;45450;-91